createdAt,value
2018-07-12T00:01:43.000Z,100459
2018-07-12T00:03:43.000Z,100459
2018-07-12T00:05:43.000Z,100461
2018-07-12T00:07:43.000Z,100465
2018-07-12T00:09:43.000Z,100462
2018-07-12T00:11:13.000Z,100461
2018-07-12T00:12:43.000Z,100464
2018-07-12T00:13:43.000Z,100463
2018-07-12T00:15:43.000Z,100459
2018-07-12T00:17:43.000Z,100464
2018-07-12T00:19:43.000Z,100461
2018-07-12T00:21:43.000Z,100462
2018-07-12T00:22:43.000Z,100461
2018-07-12T00:24:43.000Z,100461
2018-07-12T00:26:43.000Z,100467
2018-07-12T00:27:43.000Z,100464
2018-07-12T00:29:28.000Z,100462
2018-07-12T00:30:43.000Z,100461
2018-07-12T00:32:43.000Z,100465
2018-07-12T00:34:43.000Z,100465
2018-07-12T00:36:43.000Z,100464
2018-07-12T00:38:43.000Z,100472
2018-07-12T00:40:43.000Z,100469
2018-07-12T00:42:43.000Z,100470
2018-07-12T00:44:43.000Z,100470
2018-07-12T00:46:43.000Z,100470
2018-07-12T00:48:43.000Z,100462
2018-07-12T00:49:43.000Z,100466
2018-07-12T00:51:43.000Z,100464
2018-07-12T00:53:43.000Z,100469
2018-07-12T00:54:43.000Z,100462
2018-07-12T00:56:42.000Z,100463
2018-07-12T00:58:42.000Z,100467
2018-07-12T00:59:42.000Z,100464
2018-07-12T01:01:12.000Z,100464
2018-07-12T01:02:42.000Z,100459
2018-07-12T01:04:42.000Z,100465
2018-07-12T01:06:42.000Z,100461
2018-07-12T01:08:42.000Z,100460
2018-07-12T01:09:42.000Z,100458
2018-07-12T01:11:12.000Z,100461
2018-07-12T01:12:42.000Z,100465
2018-07-12T01:13:42.000Z,100464
2018-07-12T01:15:42.000Z,100461
2018-07-12T01:16:42.000Z,100463
2018-07-12T01:18:42.000Z,100463
2018-07-12T01:20:42.000Z,100459
2018-07-12T01:22:42.000Z,100456
2018-07-12T01:24:42.000Z,100456
2018-07-12T01:26:42.000Z,100454
2018-07-12T01:28:42.000Z,100446
2018-07-12T01:29:42.000Z,100449
2018-07-12T01:31:42.000Z,100443
2018-07-12T01:33:42.000Z,100442
2018-07-12T01:35:42.000Z,100438
2018-07-12T01:37:42.000Z,100442
2018-07-12T01:39:42.000Z,100447
2018-07-12T01:40:42.000Z,100442
2018-07-12T01:42:42.000Z,100443
2018-07-12T01:44:42.000Z,100450
2018-07-12T01:46:42.000Z,100448
2018-07-12T01:48:42.000Z,100447
2018-07-12T01:50:42.000Z,100441
2018-07-12T01:51:42.000Z,100445
2018-07-12T01:53:42.000Z,100455
2018-07-12T01:55:42.000Z,100448
2018-07-12T01:56:42.000Z,100448
2018-07-12T01:58:42.000Z,100451
2018-07-12T01:59:42.000Z,100446
2018-07-12T02:01:42.000Z,100442
2018-07-12T02:03:42.000Z,100445
2018-07-12T02:05:42.000Z,100448
2018-07-12T02:07:42.000Z,100442
2018-07-12T02:09:42.000Z,100452
2018-07-12T02:11:42.000Z,100451
2018-07-12T02:13:42.000Z,100447
2018-07-12T02:14:42.000Z,100447
2018-07-12T02:16:42.000Z,100446
2018-07-12T02:18:42.000Z,100447
2018-07-12T02:20:42.000Z,100448
2018-07-12T02:22:27.000Z,100451
2018-07-12T02:23:42.000Z,100452
2018-07-12T02:25:27.000Z,100450
2018-07-12T02:26:42.000Z,100446
2018-07-12T02:28:42.000Z,100444
2018-07-12T02:30:42.000Z,100450
2018-07-12T02:32:42.000Z,100445
2018-07-12T02:34:42.000Z,100449
2018-07-12T02:36:42.000Z,100455
2018-07-12T02:38:42.000Z,100457
2018-07-12T02:40:42.000Z,100457
2018-07-12T02:42:27.000Z,100453
2018-07-12T02:43:42.000Z,100454
2018-07-12T02:44:42.000Z,100452
2018-07-12T02:46:42.000Z,100455
2018-07-12T02:47:42.000Z,100454
2018-07-12T02:48:42.000Z,100449
2018-07-12T02:50:42.000Z,100452
2018-07-12T02:52:42.000Z,100449
2018-07-12T02:53:42.000Z,100445
2018-07-12T02:55:42.000Z,100447
2018-07-12T02:57:42.000Z,100445
2018-07-12T02:58:42.000Z,100440
2018-07-12T03:00:42.000Z,100444
2018-07-12T03:02:42.000Z,100446
2018-07-12T03:03:43.000Z,100445
2018-07-12T03:05:43.000Z,100444
2018-07-12T03:07:43.000Z,100449
2018-07-12T03:08:43.000Z,100440
2018-07-12T03:09:43.000Z,100444
2018-07-12T03:11:43.000Z,100444
2018-07-12T03:12:43.000Z,100445
2018-07-12T03:14:43.000Z,100448
2018-07-12T03:16:28.000Z,100444
2018-07-12T03:17:43.000Z,100446
2018-07-12T03:18:43.000Z,100445
2018-07-12T03:20:43.000Z,100446
2018-07-12T03:22:43.000Z,100445
2018-07-12T03:23:43.000Z,100448
2018-07-12T03:25:43.000Z,100446
2018-07-12T03:26:43.000Z,100445
2018-07-12T03:28:43.000Z,100445
2018-07-12T03:29:43.000Z,100448
2018-07-12T03:31:28.000Z,100449
2018-07-12T03:32:28.000Z,100451
2018-07-12T03:33:43.000Z,100451
2018-07-12T03:35:12.000Z,100451
2018-07-12T03:36:43.000Z,100450
2018-07-12T03:38:43.000Z,100449
2018-07-12T03:40:43.000Z,100454
2018-07-12T03:41:43.000Z,100450
2018-07-12T03:43:28.000Z,100455
2018-07-12T03:44:43.000Z,100446
2018-07-12T03:45:43.000Z,100450
2018-07-12T03:47:28.000Z,100450
2018-07-12T03:48:43.000Z,100444
2018-07-12T03:50:43.000Z,100448
2018-07-12T03:51:43.000Z,100449
2018-07-12T03:53:43.000Z,100441
2018-07-12T03:54:43.000Z,100446
2018-07-12T03:56:43.000Z,100444
2018-07-12T03:58:28.000Z,100447
2018-07-12T04:00:43.000Z,100447
2018-07-12T04:02:43.000Z,100446
2018-07-12T04:04:43.000Z,100446
2018-07-12T04:06:43.000Z,100451
2018-07-12T04:07:42.000Z,100450
2018-07-12T04:08:42.000Z,100448
2018-07-12T04:10:42.000Z,100453
2018-07-12T04:12:27.000Z,100457
2018-07-12T04:13:42.000Z,100453
2018-07-12T04:15:42.000Z,100449
2018-07-12T04:17:42.000Z,100457
2018-07-12T04:18:42.000Z,100455
2018-07-12T04:19:42.000Z,100457
2018-07-12T04:20:42.000Z,100457
2018-07-12T04:21:42.000Z,100461
2018-07-12T04:23:27.000Z,100461
2018-07-12T04:24:42.000Z,100450
2018-07-12T04:25:42.000Z,100462
2018-07-12T04:26:42.000Z,100457
2018-07-12T04:28:42.000Z,100454
2018-07-12T04:30:42.000Z,100462
2018-07-12T04:31:42.000Z,100462
2018-07-12T04:32:42.000Z,100463
2018-07-12T04:34:27.000Z,100467
2018-07-12T04:35:42.000Z,100471
2018-07-12T04:37:42.000Z,100471
2018-07-12T04:38:42.000Z,100471
2018-07-12T04:40:42.000Z,100475
2018-07-12T04:41:42.000Z,100478
2018-07-12T04:43:12.000Z,100483
2018-07-12T04:44:42.000Z,100478
2018-07-12T04:46:42.000Z,100478
2018-07-12T04:48:42.000Z,100485
2018-07-12T04:50:42.000Z,100489
2018-07-12T04:51:42.000Z,100490
2018-07-12T04:53:42.000Z,100492
2018-07-12T04:54:42.000Z,100489
2018-07-12T04:56:42.000Z,100489
2018-07-12T04:57:42.000Z,100491
2018-07-12T04:59:42.000Z,100486
2018-07-12T05:01:42.000Z,100485
2018-07-12T05:03:42.000Z,100494
2018-07-12T05:05:42.000Z,100490
2018-07-12T05:07:27.000Z,100401
2018-07-12T05:09:42.000Z,100490
2018-07-12T05:11:43.000Z,100496
2018-07-12T05:13:43.000Z,100498
2018-07-12T05:14:43.000Z,100498
2018-07-12T05:16:43.000Z,100499
2018-07-12T05:18:43.000Z,100497
2018-07-12T05:20:43.000Z,100504
2018-07-12T05:22:27.000Z,100500
2018-07-12T05:23:43.000Z,100501
2018-07-12T05:25:43.000Z,100506
2018-07-12T05:27:27.000Z,100503
2018-07-12T05:28:27.000Z,100499
2018-07-12T05:29:43.000Z,100499
2018-07-12T05:31:27.000Z,100499
2018-07-12T05:32:43.000Z,100502
2018-07-12T05:34:43.000Z,100499
2018-07-12T05:35:43.000Z,100494
2018-07-12T05:37:43.000Z,100505
2018-07-12T05:39:43.000Z,100503
2018-07-12T05:41:43.000Z,100506
2018-07-12T05:42:43.000Z,100501
2018-07-12T05:44:27.000Z,100502
2018-07-12T05:45:43.000Z,100508
2018-07-12T05:47:27.000Z,100506
2018-07-12T05:48:43.000Z,100508
2018-07-12T05:49:43.000Z,100504
2018-07-12T05:51:43.000Z,100508
2018-07-12T05:52:43.000Z,100512
2018-07-12T05:53:43.000Z,100510
2018-07-12T05:54:43.000Z,100514
2018-07-12T05:56:27.000Z,100507
2018-07-12T05:57:43.000Z,100517
2018-07-12T05:58:43.000Z,100521
2018-07-12T05:59:43.000Z,100509
2018-07-12T06:01:43.000Z,100512
2018-07-12T06:03:43.000Z,100512
2018-07-12T06:05:43.000Z,100516
2018-07-12T06:06:43.000Z,100511
2018-07-12T06:07:43.000Z,100508
2018-07-12T06:09:43.000Z,100520
2018-07-12T06:11:43.000Z,100521
2018-07-12T06:12:43.000Z,100521
2018-07-12T06:14:43.000Z,100523
2018-07-12T06:16:28.000Z,100526
2018-07-12T06:17:43.000Z,100521
2018-07-12T06:19:43.000Z,100526
2018-07-12T06:21:28.000Z,100534
2018-07-12T06:22:43.000Z,100528
2018-07-12T06:24:43.000Z,100529
2018-07-12T06:25:43.000Z,100536
2018-07-12T06:27:43.000Z,100537
2018-07-12T06:29:12.000Z,100544
2018-07-12T06:30:43.000Z,100542
2018-07-12T06:31:43.000Z,100547
2018-07-12T06:33:43.000Z,100549
2018-07-12T06:35:43.000Z,100551
2018-07-12T06:36:43.000Z,100554
2018-07-12T06:38:28.000Z,100549
2018-07-12T06:39:43.000Z,100549
2018-07-12T06:41:43.000Z,100546
2018-07-12T06:43:43.000Z,100548
2018-07-12T06:45:43.000Z,100549
2018-07-12T06:47:43.000Z,100543
2018-07-12T06:48:43.000Z,100548
2018-07-12T06:49:43.000Z,100550
2018-07-12T06:51:43.000Z,100552
2018-07-12T06:53:43.000Z,100547
2018-07-12T06:55:43.000Z,100551
2018-07-12T06:56:43.000Z,100548
2018-07-12T06:57:43.000Z,100556
2018-07-12T06:59:43.000Z,100559
2018-07-12T07:01:12.000Z,100559
2018-07-12T07:02:43.000Z,100567
2018-07-12T07:03:43.000Z,100562
2018-07-12T07:04:43.000Z,100562
2018-07-12T07:06:43.000Z,100564
2018-07-12T07:43:34.000Z,100607
2018-07-12T07:45:20.000Z,100603
2018-07-12T07:46:20.000Z,100599
2018-07-12T07:48:20.000Z,100607
2018-07-12T07:49:20.000Z,100608
2018-07-12T07:50:20.000Z,100609
2018-07-12T07:52:20.000Z,100605
2018-07-12T07:54:20.000Z,100607
2018-07-12T07:56:20.000Z,100603
2018-07-12T07:58:20.000Z,100602
2018-07-12T08:00:20.000Z,100606
2018-07-12T08:02:20.000Z,100604
2018-07-12T08:04:20.000Z,100595
2018-07-12T08:06:20.000Z,100602
2018-07-12T08:08:05.000Z,100601
2018-07-12T08:09:20.000Z,100611
2018-07-12T08:10:20.000Z,100600
2018-07-12T08:11:20.000Z,100606
2018-07-12T08:12:20.000Z,100611
2018-07-12T08:14:20.000Z,100606
2018-07-12T08:16:20.000Z,100606
2018-07-12T08:17:20.000Z,100602
2018-07-12T08:19:20.000Z,100606
2018-07-12T08:21:04.000Z,100611
2018-07-12T08:22:20.000Z,100600
2018-07-12T08:24:04.000Z,100608
2018-07-12T08:25:20.000Z,100598
2018-07-12T08:27:04.000Z,100606
2018-07-12T08:28:20.000Z,100595
2018-07-12T08:29:20.000Z,100602
2018-07-12T08:30:20.000Z,100602
2018-07-12T08:32:20.000Z,100602
2018-07-12T08:34:04.000Z,100599
2018-07-12T08:35:04.000Z,100609
2018-07-12T08:36:20.000Z,100609
2018-07-12T08:38:20.000Z,100603
2018-07-12T08:40:20.000Z,100605
2018-07-12T08:42:20.000Z,100605
2018-07-12T08:44:20.000Z,100609
2018-07-12T08:45:20.000Z,100609
2018-07-12T08:47:20.000Z,100602
2018-07-12T08:48:20.000Z,100607
2018-07-12T08:50:20.000Z,100602
2018-07-12T08:52:04.000Z,100604
2018-07-12T08:53:20.000Z,100600
2018-07-12T08:54:20.000Z,100594
2018-07-12T08:56:20.000Z,100599
2018-07-12T08:58:20.000Z,100591
2018-07-12T09:00:04.000Z,100588
2018-07-12T09:01:20.000Z,100588
2018-07-12T09:03:04.000Z,100589
2018-07-12T09:04:20.000Z,100593
2018-07-12T09:06:20.000Z,100595
2018-07-12T09:08:05.000Z,100596
2018-07-12T09:09:20.000Z,100600
2018-07-12T09:11:20.000Z,100592
2018-07-12T09:12:20.000Z,100596
2018-07-12T09:13:20.000Z,100592
2018-07-12T09:14:20.000Z,100592
2018-07-12T09:16:20.000Z,100597
2018-07-12T09:18:20.000Z,100596
2018-07-12T09:20:20.000Z,100601
2018-07-12T09:22:20.000Z,100602
2018-07-12T09:24:19.000Z,100610
2018-07-12T09:26:19.000Z,100612
2018-07-12T09:27:19.000Z,100612
2018-07-12T09:29:19.000Z,100621
2018-07-12T09:31:19.000Z,100618
2018-07-12T09:33:04.000Z,100618
2018-07-12T09:34:04.000Z,100617
2018-07-12T09:35:19.000Z,100618
2018-07-12T09:36:19.000Z,100620
2018-07-12T09:38:19.000Z,100619
2018-07-12T09:39:19.000Z,100619
2018-07-12T09:41:19.000Z,100624
2018-07-12T09:42:19.000Z,100618
2018-07-12T09:44:04.000Z,100615
2018-07-12T09:45:19.000Z,100619
2018-07-12T09:46:19.000Z,100619
2018-07-12T09:48:19.000Z,100619
2018-07-12T09:50:19.000Z,100624
2018-07-12T09:52:19.000Z,100614
2018-07-12T09:54:19.000Z,100622
2018-07-12T09:56:19.000Z,100626
2018-07-12T09:58:19.000Z,100629
2018-07-12T09:59:19.000Z,100622
2018-07-12T10:01:19.000Z,100626
2018-07-12T10:03:19.000Z,100627
2018-07-12T10:04:19.000Z,100630
2018-07-12T10:06:19.000Z,100627
2018-07-12T10:07:19.000Z,100631
2018-07-12T10:09:19.000Z,100633
2018-07-12T10:11:04.000Z,100629
2018-07-12T10:13:19.000Z,100626
2018-07-12T10:14:19.000Z,100622
2018-07-12T10:16:19.000Z,100624
2018-07-12T10:17:19.000Z,100623
2018-07-12T10:19:19.000Z,100623
2018-07-12T10:20:19.000Z,100619
2018-07-12T10:22:19.000Z,100623
2018-07-12T10:24:19.000Z,100624
2018-07-12T10:25:19.000Z,100624
2018-07-12T10:26:19.000Z,100629
2018-07-12T10:28:19.000Z,100629
2018-07-12T10:30:19.000Z,100629
2018-07-12T10:31:19.000Z,100631
2018-07-12T10:33:19.000Z,100628
2018-07-12T10:35:19.000Z,100631
2018-07-12T10:36:19.000Z,100628
2018-07-12T10:38:19.000Z,100622
2018-07-12T10:40:19.000Z,100623
2018-07-12T10:41:19.000Z,100625
2018-07-12T10:43:19.000Z,100624
2018-07-12T10:45:19.000Z,100621
2018-07-12T10:46:19.000Z,100621
2018-07-12T10:48:19.000Z,100620
2018-07-12T10:50:19.000Z,100624
2018-07-12T10:52:19.000Z,100623
2018-07-12T10:54:19.000Z,100624
2018-07-12T10:56:19.000Z,100623
2018-07-12T10:58:19.000Z,100614
2018-07-12T11:00:19.000Z,100612
2018-07-12T11:02:19.000Z,100611
2018-07-12T11:03:19.000Z,100611
2018-07-12T11:04:19.000Z,100610
2018-07-12T11:06:19.000Z,100607
2018-07-12T11:08:19.000Z,100606
2018-07-12T11:10:04.000Z,100608
2018-07-12T11:12:19.000Z,100604
2018-07-12T11:14:19.000Z,100607
2018-07-12T11:16:19.000Z,100613
2018-07-12T11:17:19.000Z,100607
2018-07-12T11:19:19.000Z,100608
2018-07-12T11:20:19.000Z,100605
2018-07-12T11:21:19.000Z,100603
2018-07-12T11:23:19.000Z,100600
2018-07-12T11:24:19.000Z,100608
2018-07-12T11:26:04.000Z,100603
2018-07-12T11:27:19.000Z,100602
2018-07-12T11:29:19.000Z,100600
2018-07-12T11:31:20.000Z,100598
2018-07-12T11:33:20.000Z,100601
2018-07-12T11:35:20.000Z,100598
2018-07-12T11:36:20.000Z,100598
2018-07-12T11:38:20.000Z,100605
2018-07-12T11:40:20.000Z,100601
2018-07-12T11:41:20.000Z,100606
2018-07-12T11:43:20.000Z,100599
2018-07-12T11:44:20.000Z,100604
2018-07-12T11:46:20.000Z,100600
2018-07-12T11:47:20.000Z,100603
2018-07-12T11:49:20.000Z,100601
2018-07-12T11:51:05.000Z,100598
2018-07-12T11:52:20.000Z,100594
2018-07-12T11:53:20.000Z,100591
2018-07-12T11:55:20.000Z,100592
2018-07-12T11:57:20.000Z,100592
2018-07-12T11:59:20.000Z,100587
2018-07-12T12:01:05.000Z,100598
2018-07-12T12:02:20.000Z,100592
2018-07-12T12:03:20.000Z,100593
2018-07-12T12:05:20.000Z,100588
2018-07-12T12:07:20.000Z,100603
2018-07-12T12:09:20.000Z,100594
2018-07-12T12:11:20.000Z,100592
2018-07-12T12:13:05.000Z,100585
2018-07-12T12:14:20.000Z,100584
2018-07-12T12:15:20.000Z,100580
2018-07-12T12:17:20.000Z,100580
2018-07-12T12:19:20.000Z,100581
2018-07-12T12:21:20.000Z,100589
2018-07-12T12:23:20.000Z,100589
2018-07-12T12:24:20.000Z,100588
2018-07-12T12:26:20.000Z,100581
2018-07-12T12:28:05.000Z,100581
2018-07-12T12:29:20.000Z,100580
2018-07-12T12:31:20.000Z,100573
2018-07-12T12:33:20.000Z,100575
2018-07-12T12:34:20.000Z,100577
2018-07-12T12:35:20.000Z,100576
2018-07-12T12:37:20.000Z,100569
2018-07-12T12:39:20.000Z,100566
2018-07-12T12:41:20.000Z,100562
2018-07-12T12:42:50.000Z,100567
2018-07-12T12:44:20.000Z,100562
2018-07-12T12:45:20.000Z,100575
2018-07-12T12:46:20.000Z,100571
2018-07-12T12:48:20.000Z,100571
2018-07-12T12:49:20.000Z,100570
2018-07-12T12:51:20.000Z,100570
2018-07-12T12:53:20.000Z,100560
2018-07-12T12:55:20.000Z,100568
2018-07-12T12:57:20.000Z,100560
2018-07-12T12:58:50.000Z,100557
2018-07-12T13:00:20.000Z,100559
2018-07-12T13:02:05.000Z,100559
2018-07-12T13:03:20.000Z,100555
2018-07-12T13:05:20.000Z,100550
2018-07-12T13:07:20.000Z,100560
2018-07-12T13:09:05.000Z,100559
2018-07-12T13:10:20.000Z,100556
2018-07-12T13:12:05.000Z,100549
2018-07-12T13:13:20.000Z,100553
2018-07-12T13:15:20.000Z,100552
2018-07-12T13:16:20.000Z,100549
2018-07-12T13:18:20.000Z,100546
2018-07-12T13:20:20.000Z,100544
2018-07-12T13:21:20.000Z,100549
2018-07-12T13:23:20.000Z,100552
2018-07-12T13:25:20.000Z,100549
2018-07-12T13:27:20.000Z,100547
2018-07-12T13:28:20.000Z,100548
2018-07-12T13:29:20.000Z,100545
2018-07-12T13:30:20.000Z,100545
2018-07-12T13:32:20.000Z,100549
2018-07-12T13:34:20.000Z,100544
2018-07-12T13:36:20.000Z,100544
2018-07-12T13:38:20.000Z,100543
2018-07-12T13:40:20.000Z,100540
2018-07-12T13:42:20.000Z,100540
2018-07-12T13:44:05.000Z,100545
2018-07-12T13:45:20.000Z,100543
2018-07-12T13:47:20.000Z,100542
2018-07-12T13:49:20.000Z,100540
2018-07-12T13:51:20.000Z,100545
2018-07-12T13:53:20.000Z,100536
2018-07-12T13:54:50.000Z,100535
2018-07-12T13:56:20.000Z,100536
2018-07-12T13:58:05.000Z,100530
2018-07-12T13:59:20.000Z,100542
2018-07-12T14:00:50.000Z,100535
2018-07-12T14:02:20.000Z,100538
2018-07-12T14:03:20.000Z,100540
2018-07-12T14:05:05.000Z,100530
2018-07-12T14:06:20.000Z,100540
2018-07-12T14:08:20.000Z,100531
2018-07-12T14:10:20.000Z,100532
2018-07-12T14:12:20.000Z,100530
2018-07-12T14:13:20.000Z,100532
2018-07-12T14:15:20.000Z,100527
2018-07-12T14:16:20.000Z,100533
2018-07-12T14:17:20.000Z,100538
2018-07-12T14:19:20.000Z,100524
2018-07-12T14:21:20.000Z,100523
2018-07-12T14:23:20.000Z,100530
2018-07-12T14:25:20.000Z,100527
2018-07-12T14:26:20.000Z,100523
2018-07-12T14:28:20.000Z,100521
2018-07-12T14:29:20.000Z,100520
2018-07-12T14:31:20.000Z,100520
2018-07-12T14:33:20.000Z,100521
2018-07-12T14:34:20.000Z,100522
2018-07-12T14:35:20.000Z,100520
2018-07-12T14:37:20.000Z,100525
2018-07-12T14:39:20.000Z,100521
2018-07-12T14:40:20.000Z,100516
2018-07-12T14:42:20.000Z,100511
2018-07-12T14:44:20.000Z,100520
2018-07-12T14:45:20.000Z,100522
2018-07-12T14:47:05.000Z,100510
2018-07-12T14:49:20.000Z,100506
2018-07-12T14:51:05.000Z,100511
2018-07-12T14:52:20.000Z,100510
2018-07-12T14:53:20.000Z,100510
2018-07-12T14:55:20.000Z,100513
2018-07-12T14:56:20.000Z,100499
2018-07-12T14:57:20.000Z,100502
2018-07-12T14:59:20.000Z,100507
2018-07-12T15:01:20.000Z,100504
2018-07-12T15:03:20.000Z,100499
2018-07-12T15:04:20.000Z,100506
2018-07-12T15:06:05.000Z,100503
2018-07-12T15:07:20.000Z,100509
2018-07-12T15:08:20.000Z,100504
2018-07-12T15:10:20.000Z,100500
2018-07-12T15:11:20.000Z,100502
2018-07-12T15:12:20.000Z,100506
2018-07-12T15:14:20.000Z,100502
2018-07-12T15:15:20.000Z,100500
2018-07-12T15:16:20.000Z,100506
2018-07-12T15:18:20.000Z,100507
2018-07-12T15:19:20.000Z,100510
2018-07-12T15:21:20.000Z,100511
2018-07-12T15:23:20.000Z,100506
2018-07-12T15:24:20.000Z,100509
2018-07-12T15:26:20.000Z,100499
2018-07-12T15:28:05.000Z,100501
2018-07-12T15:29:20.000Z,100499
2018-07-12T15:30:20.000Z,100500
2018-07-12T15:32:20.000Z,100495
2018-07-12T15:34:05.000Z,100501
2018-07-12T15:35:20.000Z,100501
2018-07-12T15:37:20.000Z,100500
2018-07-12T15:39:20.000Z,100499
2018-07-12T15:40:20.000Z,100502
2018-07-12T15:42:20.000Z,100498
2018-07-12T15:43:20.000Z,100501
2018-07-12T15:45:20.000Z,100498
2018-07-12T15:47:19.000Z,100496
2018-07-12T15:49:19.000Z,100499
2018-07-12T15:50:19.000Z,100504
2018-07-12T15:52:19.000Z,100503
2018-07-12T15:53:19.000Z,100505
2018-07-12T15:55:19.000Z,100501
2018-07-12T15:57:19.000Z,100503
2018-07-12T15:59:19.000Z,100505
2018-07-12T16:01:19.000Z,100508
2018-07-12T16:03:19.000Z,100508
2018-07-12T16:04:19.000Z,100507
2018-07-12T16:06:19.000Z,100509
2018-07-12T16:08:19.000Z,100503
2018-07-12T16:09:19.000Z,100504
2018-07-12T16:11:19.000Z,100511
2018-07-12T16:12:19.000Z,100501
2018-07-12T16:14:19.000Z,100505
2018-07-12T16:16:19.000Z,100503
2018-07-12T16:18:19.000Z,100498
2018-07-12T16:20:19.000Z,100500
2018-07-12T16:21:19.000Z,100501
2018-07-12T16:23:04.000Z,100502
2018-07-12T16:24:19.000Z,100499
2018-07-12T16:25:19.000Z,100503
2018-07-12T16:26:19.000Z,100502
2018-07-12T16:28:19.000Z,100496
2018-07-12T16:29:19.000Z,100494
2018-07-12T16:31:19.000Z,100500
2018-07-12T16:33:19.000Z,100503
2018-07-12T16:35:19.000Z,100501
2018-07-12T16:37:04.000Z,100499
2018-07-12T16:38:19.000Z,100504
2018-07-12T16:40:19.000Z,100495
2018-07-12T16:41:19.000Z,100501
2018-07-12T16:43:19.000Z,100498
2018-07-12T16:44:19.000Z,100502
2018-07-12T16:46:19.000Z,100508
2018-07-12T16:48:19.000Z,100504
2018-07-12T16:50:19.000Z,100502
2018-07-12T16:51:19.000Z,100502
2018-07-12T16:53:19.000Z,100505
2018-07-12T16:55:19.000Z,100508
2018-07-12T16:57:04.000Z,100500
2018-07-12T16:58:19.000Z,100506
2018-07-12T17:00:04.000Z,100509
2018-07-12T17:01:19.000Z,100509
2018-07-12T17:03:19.000Z,100506
2018-07-12T17:04:19.000Z,100510
2018-07-12T17:06:19.000Z,100512
2018-07-12T17:08:19.000Z,100516
2018-07-12T17:10:19.000Z,100511
2018-07-12T17:11:19.000Z,100511
2018-07-12T17:13:19.000Z,100514
2018-07-12T17:14:19.000Z,100510
2018-07-12T17:16:19.000Z,100513
2018-07-12T17:18:04.000Z,100516
2018-07-12T17:19:19.000Z,100519
2018-07-12T17:21:19.000Z,100515
2018-07-12T17:23:19.000Z,100513
2018-07-12T17:25:19.000Z,100514
2018-07-12T17:27:19.000Z,100520
2018-07-12T17:29:19.000Z,100514
2018-07-12T17:31:19.000Z,100524
2018-07-12T17:32:19.000Z,100523
2018-07-12T17:34:04.000Z,100533
2018-07-12T17:35:19.000Z,100527
2018-07-12T17:37:19.000Z,100527
2018-07-12T17:38:19.000Z,100537
2018-07-12T17:40:04.000Z,100535
2018-07-12T17:41:19.000Z,100541
2018-07-12T17:43:19.000Z,100538
2018-07-12T17:45:19.000Z,100547
2018-07-12T17:47:04.000Z,100541
2018-07-12T17:48:19.000Z,100548
2018-07-12T17:50:19.000Z,100555
2018-07-12T17:51:19.000Z,100559
2018-07-12T17:52:19.000Z,100558
2018-07-12T17:54:19.000Z,100565
2018-07-12T17:56:19.000Z,100562
2018-07-12T17:57:19.000Z,100562
2018-07-12T17:59:19.000Z,100566
2018-07-12T18:01:19.000Z,100575
2018-07-12T18:02:19.000Z,100575
2018-07-12T18:04:19.000Z,100577
2018-07-12T18:06:19.000Z,100580
2018-07-12T18:08:19.000Z,100585
2018-07-12T18:09:19.000Z,100587
2018-07-12T18:10:19.000Z,100580
2018-07-12T18:12:19.000Z,100585
2018-07-12T18:14:19.000Z,100583
2018-07-12T18:15:19.000Z,100581
2018-07-12T18:16:19.000Z,100589
2018-07-12T18:17:19.000Z,100582
2018-07-12T18:19:19.000Z,100587
2018-07-12T18:20:19.000Z,100582
2018-07-12T18:21:19.000Z,100584
2018-07-12T18:23:19.000Z,100582
2018-07-12T18:25:04.000Z,100589
2018-07-12T18:26:19.000Z,100589
2018-07-12T18:28:19.000Z,100589
2018-07-12T18:30:19.000Z,100594
2018-07-12T18:32:19.000Z,100590
2018-07-12T18:33:19.000Z,100593
2018-07-12T18:35:19.000Z,100597
2018-07-12T18:37:19.000Z,100600
2018-07-12T18:38:19.000Z,100599
2018-07-12T18:40:19.000Z,100602
2018-07-12T18:42:19.000Z,100596
2018-07-12T18:44:04.000Z,100602
2018-07-12T18:45:19.000Z,100598
2018-07-12T18:46:20.000Z,100601
2018-07-12T18:48:04.000Z,100599
2018-07-12T18:49:19.000Z,100601
2018-07-12T18:51:19.000Z,100609
2018-07-12T18:52:19.000Z,100610
2018-07-12T18:54:04.000Z,100606
2018-07-12T18:55:19.000Z,100607
2018-07-12T18:57:20.000Z,100604
2018-07-12T18:59:20.000Z,100602
2018-07-12T19:01:04.000Z,100611
2018-07-12T19:02:20.000Z,100613
2018-07-12T19:04:20.000Z,100615
2018-07-12T19:06:20.000Z,100618
2018-07-12T19:08:20.000Z,100623
2018-07-12T19:10:04.000Z,100623
2018-07-12T19:11:20.000Z,100620
2018-07-12T19:12:20.000Z,100621
2018-07-12T19:14:04.000Z,100622
2018-07-12T19:15:20.000Z,100622
2018-07-12T19:17:20.000Z,100620
2018-07-12T19:19:04.000Z,100626
2018-07-12T19:20:20.000Z,100623
2018-07-12T19:21:20.000Z,100622
2018-07-12T19:23:04.000Z,100627
2018-07-12T19:24:20.000Z,100625
2018-07-12T19:26:20.000Z,100632
2018-07-12T19:28:20.000Z,100623
2018-07-12T19:30:20.000Z,100629
2018-07-12T19:32:20.000Z,100634
2018-07-12T19:33:20.000Z,100632
2018-07-12T19:34:20.000Z,100622
2018-07-12T19:36:20.000Z,100624
2018-07-12T19:38:20.000Z,100628
2018-07-12T19:40:20.000Z,100629
2018-07-12T19:42:04.000Z,100632
2018-07-12T19:43:20.000Z,100630
2018-07-12T19:44:20.000Z,100629
2018-07-12T19:46:20.000Z,100623
2018-07-12T19:47:20.000Z,100626
2018-07-12T19:49:20.000Z,100630
2018-07-12T19:50:20.000Z,100632
2018-07-12T19:52:04.000Z,100630
2018-07-12T19:53:20.000Z,100638
2018-07-12T19:55:20.000Z,100639
2018-07-12T19:56:20.000Z,100639
2018-07-12T19:58:20.000Z,100646
2018-07-12T19:59:20.000Z,100644
2018-07-12T20:00:20.000Z,100646
2018-07-12T20:01:20.000Z,100643
2018-07-12T20:03:20.000Z,100648
2018-07-12T20:05:20.000Z,100656
2018-07-12T20:07:20.000Z,100652
2018-07-12T20:09:20.000Z,100654
2018-07-12T20:10:20.000Z,100659
2018-07-12T20:12:04.000Z,100658
2018-07-12T20:13:20.000Z,100659
2018-07-12T20:15:20.000Z,100663
2018-07-12T20:17:20.000Z,100664
2018-07-12T20:19:20.000Z,100665
2018-07-12T20:21:20.000Z,100668
2018-07-12T20:23:20.000Z,100671
2018-07-12T20:24:20.000Z,100671
2018-07-12T20:26:04.000Z,100671
2018-07-12T20:27:20.000Z,100670
2018-07-12T20:29:20.000Z,100672
2018-07-12T20:31:20.000Z,100675
2018-07-12T20:33:20.000Z,100673
2018-07-12T20:34:20.000Z,100675
2018-07-12T20:36:20.000Z,100671
2018-07-12T20:38:20.000Z,100672
2018-07-12T20:39:20.000Z,100675
2018-07-12T20:41:20.000Z,100674
2018-07-12T20:43:20.000Z,100672
2018-07-12T20:44:20.000Z,100670
2018-07-12T20:45:20.000Z,100676
2018-07-12T20:47:20.000Z,100684
2018-07-12T20:48:20.000Z,100677
2018-07-12T20:50:20.000Z,100680
2018-07-12T20:52:20.000Z,100681